Rock Tavern, New York
Current Conditions -  °F | °C
As of 3:45 AM on Friday 24 Oct 2014 (Local Time) from KSWF Reporting Station
Overcast Overcast  
Wind Chill: 48°   Ceiling: 3000
Heat Index: 48°   Visibility: 10mi
Dew Point: 45°   Wind: 0mph
Humidity: 87%   Direction: NA
Pressure: 29.8"   Gusts: NA
Location:  41.47°N, 74.15°W
Report Text: KSWF 240745Z 00000KT 10SM SCT020 OVC030 09/07 A2980
Loading
Personal Weather Stations






























Interactive Weather Map
Tropical Storm Tracking
New forecast layout! Learn more

10-Day Weather Forecast

Advertisements
Track Severe Weather on mobile